createdAt,value
2023-05-10T00:00:18.218Z,95500.09
2023-05-10T00:01:19.935Z,95490.19
2023-05-10T00:02:21.571Z,95503.34
2023-05-10T00:03:23.328Z,95506.63
2023-05-10T00:04:28.210Z,95501.03
2023-05-10T00:05:30.322Z,95503.94
2023-05-10T00:06:32.603Z,95499.84
2023-05-10T00:07:34.128Z,95498.59
2023-05-10T00:08:36.017Z,95506.63
2023-05-10T00:09:37.721Z,95499.97
2023-05-10T00:10:39.304Z,95506.63
2023-05-10T00:11:40.805Z,95505.44
2023-05-10T00:12:43.000Z,95500.50
2023-05-10T00:13:44.576Z,95497.00
2023-05-10T00:14:46.253Z,95500.72
2023-05-10T00:15:47.789Z,95507.06
2023-05-10T00:16:49.313Z,95499.78
2023-05-10T00:17:50.951Z,95507.81
2023-05-10T00:18:52.513Z,95502.47
2023-05-10T00:19:54.000Z,95497.31
2023-05-10T00:20:55.481Z,95502.97
2023-05-10T00:21:57.005Z,95502.97
2023-05-10T00:22:58.521Z,95503.78
2023-05-10T00:24:00.548Z,95494.50
2023-05-10T00:25:02.024Z,95487.34
2023-05-10T00:26:03.614Z,95498.03
2023-05-10T00:27:05.159Z,95502.22
2023-05-10T00:28:06.663Z,95502.59
2023-05-10T00:29:08.199Z,95506.97
2023-05-10T00:30:10.605Z,95495.66
2023-05-10T00:31:12.145Z,95501.53
2023-05-10T00:32:14.891Z,95498.03
2023-05-10T00:33:16.558Z,95501.28
2023-05-10T00:34:18.106Z,95501.53
2023-05-10T00:35:20.570Z,95501.53
2023-05-10T00:36:23.118Z,95501.56
2023-05-10T00:37:24.669Z,95501.28
2023-05-10T00:38:26.166Z,95495.63
2023-05-10T00:39:29.522Z,95496.63
2023-05-10T00:40:31.616Z,95499.97
2023-05-10T00:41:38.281Z,95499.22
2023-05-10T00:42:41.565Z,95498.69
2023-05-10T00:43:43.116Z,95505.09
2023-05-10T00:44:44.878Z,95497.66
2023-05-10T00:45:46.882Z,95500.19
2023-05-10T00:46:49.776Z,95497.28
2023-05-10T00:47:53.149Z,95503.00
2023-05-10T00:48:54.960Z,95504.69
2023-05-10T00:49:57.177Z,95501.22
2023-05-10T00:50:58.723Z,95509.69
2023-05-10T00:52:00.726Z,95505.53
2023-05-10T00:53:03.512Z,95507.00
2023-05-10T00:54:05.005Z,95505.97
2023-05-10T00:55:07.622Z,95514.66
2023-05-10T00:56:09.188Z,95516.25
2023-05-10T00:57:11.330Z,95511.75
2023-05-10T00:58:13.301Z,95516.66
2023-05-10T00:59:18.865Z,95514.03
2023-05-10T01:00:20.708Z,95517.50
2023-05-10T01:01:23.207Z,95519.19
2023-05-10T01:02:27.240Z,95510.31
2023-05-10T01:03:29.168Z,95512.41
2023-05-10T01:04:31.534Z,95518.81
2023-05-10T01:05:33.122Z,95518.00
2023-05-10T01:06:34.581Z,95518.59
2023-05-10T01:07:36.076Z,95515.91
2023-05-10T01:08:38.539Z,95518.19
2023-05-10T01:09:40.185Z,95515.50
2023-05-10T01:10:42.878Z,95520.88
2023-05-10T01:11:45.799Z,95518.03
2023-05-10T01:12:48.486Z,95523.97
2023-05-10T01:13:56.600Z,95522.94
2023-05-10T01:14:58.926Z,95518.81
2023-05-10T01:16:03.041Z,95527.28
2023-05-10T01:17:07.005Z,95528.97
2023-05-10T01:18:09.683Z,95525.41
2023-05-10T01:19:20.710Z,95532.34
2023-05-10T01:20:22.339Z,95531.91
2023-05-10T01:21:33.902Z,95530.09
2023-05-10T01:22:48.536Z,95539.59
2023-05-10T01:24:27.546Z,95522.34
2023-05-10T01:25:42.010Z,95528.53
2023-05-10T01:26:52.858Z,95531.03
2023-05-10T01:28:03.259Z,95528.47
2023-05-10T01:29:14.876Z,95528.75
2023-05-10T01:30:50.316Z,95525.84
2023-05-10T01:32:03.822Z,95531.03
2023-05-10T01:33:27.720Z,95529.00
2023-05-10T01:34:58.599Z,95535.63
2023-05-10T01:36:09.866Z,95538.34
2023-05-10T01:37:20.866Z,95533.59
2023-05-10T01:38:41.869Z,95544.88
2023-05-10T01:39:59.401Z,95542.22
2023-05-10T01:41:03.909Z,95538.13
2023-05-10T01:42:11.329Z,95547.78
2023-05-10T01:43:21.000Z,95544.94
2023-05-10T01:44:46.227Z,95551.72
2023-05-10T01:45:50.345Z,95545.16
2023-05-10T01:47:05.389Z,95543.69
2023-05-10T01:48:10.405Z,95543.09
2023-05-10T01:49:27.967Z,95544.44
2023-05-10T01:50:32.734Z,95536.91
2023-05-10T01:51:42.373Z,95543.50
2023-05-10T01:52:49.041Z,95540.06
2023-05-10T01:53:52.605Z,95545.19
2023-05-10T01:54:59.265Z,95544.59
2023-05-10T01:56:02.660Z,95553.63
2023-05-10T01:57:08.670Z,95546.19
2023-05-10T01:58:16.178Z,95549.91
2023-05-10T01:59:20.224Z,95551.16
2023-05-10T02:00:22.294Z,95550.97
2023-05-10T02:01:28.390Z,95551.16
2023-05-10T02:02:31.117Z,95553.22
2023-05-10T02:03:35.776Z,95560.22
2023-05-10T02:04:40.561Z,95558.56
2023-05-10T02:05:43.412Z,95555.69
2023-05-10T02:06:48.826Z,95557.53
2023-05-10T02:07:51.979Z,95553.25
2023-05-10T02:08:54.718Z,95556.59
2023-05-10T02:09:56.718Z,95559.06
2023-05-10T02:11:00.135Z,95557.69
2023-05-10T02:12:06.544Z,95568.75
2023-05-10T02:13:09.814Z,95567.09
2023-05-10T02:14:12.528Z,95571.22
2023-05-10T02:15:18.916Z,95562.63
2023-05-10T02:16:26.128Z,95571.84
2023-05-10T02:17:29.709Z,95573.31
2023-05-10T02:18:33.321Z,95572.03
2023-05-10T02:19:36.899Z,95576.31
2023-05-10T02:20:39.426Z,95570.38
2023-05-10T02:21:42.466Z,95571.19
2023-05-10T02:22:45.787Z,95569.41
2023-05-10T02:23:53.090Z,95569.81
2023-05-10T02:24:56.779Z,95577.84
2023-05-10T02:26:01.457Z,95572.69
2023-05-10T02:27:04.641Z,95576.81
2023-05-10T02:28:08.193Z,95576.22
2023-05-10T02:29:13.314Z,95582.16
2023-05-10T02:30:15.884Z,95579.50
2023-05-10T02:31:18.988Z,95582.34
2023-05-10T02:32:23.871Z,95577.63
2023-05-10T02:33:26.934Z,95585.47
2023-05-10T02:34:29.164Z,95579.31
2023-05-10T02:35:31.972Z,95583.38
2023-05-10T02:36:34.479Z,95580.53
2023-05-10T02:37:37.905Z,95584.44
2023-05-10T02:38:40.031Z,95584.03
2023-05-10T02:39:45.101Z,95587.50
2023-05-10T02:40:48.890Z,95586.06
2023-05-10T02:41:52.862Z,95589.81
2023-05-10T02:42:57.363Z,95585.28
2023-05-10T02:44:02.234Z,95578.69
2023-05-10T02:45:09.042Z,95571.72
2023-05-10T02:46:10.904Z,95579.34
2023-05-10T02:47:12.510Z,95585.72
2023-05-10T02:48:14.033Z,95587.16
2023-05-10T02:49:16.622Z,95589.03
2023-05-10T02:50:18.925Z,95588.03
2023-05-10T02:51:25.661Z,95584.13
2023-05-10T02:52:34.684Z,95585.38
2023-05-10T02:53:39.391Z,95581.84
2023-05-10T02:54:46.196Z,95581.47
2023-05-10T02:55:53.145Z,95587.59
2023-05-10T02:57:03.931Z,95589.66
2023-05-10T02:58:05.681Z,95584.72
2023-05-10T02:59:07.211Z,95584.50
2023-05-10T03:00:09.485Z,95589.47
2023-05-10T03:01:11.113Z,95587.19
2023-05-10T03:02:14.385Z,95582.06
2023-05-10T03:03:15.840Z,95580.84
2023-05-10T03:04:17.455Z,95587.41
2023-05-10T03:05:19.809Z,95589.25
2023-05-10T03:06:22.185Z,95590.06
2023-05-10T03:07:24.250Z,95594.75
2023-05-10T03:08:25.902Z,95589.03
2023-05-10T03:09:27.571Z,95590.63
2023-05-10T03:10:31.786Z,95591.69
2023-05-10T03:11:46.458Z,95589.84
2023-05-10T03:13:02.182Z,95592.31
2023-05-10T03:14:35.054Z,95590.72
2023-05-10T03:16:06.013Z,95596.88
2023-05-10T03:17:17.332Z,95596.03
2023-05-10T03:18:58.258Z,95599.09
2023-05-10T03:20:05.367Z,95598.28
2023-05-10T03:21:13.254Z,95593.97
2023-05-10T03:22:36.073Z,95599.09
2023-05-10T03:23:48.776Z,95590.47
2023-05-10T03:24:52.358Z,95600.13
2023-05-10T03:25:54.774Z,95595.97
2023-05-10T03:27:00.018Z,95593.75
2023-05-10T03:28:04.664Z,95598.72
2023-05-10T03:29:08.808Z,95592.75
2023-05-10T03:30:14.544Z,95600.53
2023-05-10T03:31:17.991Z,95598.66
2023-05-10T03:32:20.238Z,95601.38
2023-05-10T03:33:21.800Z,95593.97
2023-05-10T03:34:27.013Z,95595.00
2023-05-10T03:35:28.608Z,95597.50
2023-05-10T03:36:30.476Z,95597.88
2023-05-10T03:37:31.963Z,95598.09
2023-05-10T03:38:33.755Z,95600.56
2023-05-10T03:39:35.358Z,95609.63
2023-05-10T03:40:38.214Z,95609.81
2023-05-10T03:41:39.690Z,95603.88
2023-05-10T03:42:41.222Z,95605.53
2023-05-10T03:43:42.815Z,95612.69
2023-05-10T03:44:44.273Z,95616.59
2023-05-10T03:45:45.966Z,95613.09
2023-05-10T03:46:47.912Z,95610.84
2023-05-10T03:47:49.429Z,95618.66
2023-05-10T03:48:51.164Z,95619.25
2023-05-10T03:49:53.216Z,95619.47
2023-05-10T03:50:54.706Z,95619.69
2023-05-10T03:51:56.224Z,95612.91
2023-05-10T03:52:58.558Z,95612.31
2023-05-10T03:54:00.078Z,95603.88
2023-05-10T03:55:03.898Z,95616.59
2023-05-10T03:56:05.452Z,95619.09
2023-05-10T03:57:07.082Z,95612.34
2023-05-10T03:58:12.178Z,95621.56
2023-05-10T03:59:14.945Z,95611.91
2023-05-10T04:00:17.314Z,95615.59
2023-05-10T04:01:18.949Z,95611.50
2023-05-10T04:02:21.770Z,95607.59
2023-05-10T04:03:24.009Z,95614.38
2023-05-10T04:04:25.580Z,95616.66
2023-05-10T04:05:27.314Z,95613.56
2023-05-10T04:06:28.885Z,95603.69
2023-05-10T04:07:30.609Z,95611.09
2023-05-10T04:08:32.409Z,95607.81
2023-05-10T04:09:34.093Z,95614.41
2023-05-10T04:10:35.652Z,95608.22
2023-05-10T04:11:37.216Z,95613.34
2023-05-10T04:12:38.725Z,95617.88
2023-05-10T04:13:40.373Z,95615.81
2023-05-10T04:14:41.843Z,95610.69
2023-05-10T04:15:44.130Z,95615.81
2023-05-10T04:16:45.759Z,95622.00
2023-05-10T04:17:47.436Z,95618.91
2023-05-10T04:18:49.601Z,95624.25
2023-05-10T04:19:54.187Z,95616.25
2023-05-10T04:20:55.724Z,95617.25
2023-05-10T04:21:57.371Z,95617.88
2023-05-10T04:22:59.251Z,95623.81
2023-05-10T04:24:00.912Z,95622.38
2023-05-10T04:25:02.409Z,95614.19
2023-05-10T04:26:04.020Z,95621.16
2023-05-10T04:27:05.661Z,95616.66
2023-05-10T04:28:07.350Z,95617.25
2023-05-10T04:29:09.176Z,95627.50
2023-05-10T04:30:11.573Z,95620.94
2023-05-10T04:31:13.482Z,95623.22
2023-05-10T04:32:17.136Z,95622.16
2023-05-10T04:33:18.620Z,95625.47
2023-05-10T04:34:22.095Z,95624.84
2023-05-10T04:35:23.570Z,95629.78
2023-05-10T04:36:24.996Z,95632.84
2023-05-10T04:37:26.467Z,95625.47
2023-05-10T04:38:28.039Z,95619.47
2023-05-10T04:39:29.577Z,95625.22
2023-05-10T04:40:31.055Z,95625.66
2023-05-10T04:41:32.508Z,95628.34
2023-05-10T04:42:34.062Z,95625.66
2023-05-10T04:43:36.342Z,95623.78
2023-05-10T04:44:38.273Z,95621.34
2023-05-10T04:45:39.745Z,95622.53
2023-05-10T04:46:41.413Z,95621.50
2023-05-10T04:47:42.961Z,95623.56
2023-05-10T04:48:44.724Z,95616.56
2023-05-10T04:49:46.328Z,95616.56
2023-05-10T04:50:47.827Z,95625.44
2023-05-10T04:51:49.340Z,95625.81
2023-05-10T04:52:51.593Z,95616.56
2023-05-10T04:54:05.218Z,95620.47
2023-05-10T04:55:10.438Z,95614.69
2023-05-10T04:56:12.019Z,95623.94
2023-05-10T04:57:13.482Z,95626.38
2023-05-10T04:58:15.040Z,95629.69
2023-05-10T04:59:16.526Z,95627.84
2023-05-10T05:00:18.651Z,95626.81
2023-05-10T05:01:20.532Z,95629.06
2023-05-10T05:02:22.765Z,95630.69
2023-05-10T05:03:24.678Z,95634.59
2023-05-10T05:04:26.200Z,95643.25
2023-05-10T05:05:27.831Z,95628.88
2023-05-10T05:06:29.304Z,95634.38
2023-05-10T05:07:31.615Z,95643.84
2023-05-10T05:08:33.195Z,95639.34
2023-05-10T05:09:35.025Z,95641.59
2023-05-10T05:10:36.571Z,95636.84
2023-05-10T05:11:38.358Z,95640.34
2023-05-10T05:12:40.017Z,95639.09
2023-05-10T05:13:41.616Z,95637.44
2023-05-10T05:14:43.270Z,95638.69
2023-05-10T05:15:44.833Z,95641.56
2023-05-10T05:16:46.318Z,95640.94
2023-05-10T05:17:48.047Z,95639.91
2023-05-10T05:18:49.534Z,95639.94
2023-05-10T05:19:51.065Z,95642.38
2023-05-10T05:20:52.531Z,95641.78
2023-05-10T05:21:57.283Z,95638.88
2023-05-10T05:22:58.710Z,95650.59
2023-05-10T05:24:00.835Z,95644.84
2023-05-10T05:25:03.569Z,95642.59
2023-05-10T05:26:05.058Z,95650.16
2023-05-10T05:27:06.976Z,95650.16
2023-05-10T05:28:08.539Z,95643.78
2023-05-10T05:29:10.090Z,95645.66
2023-05-10T05:30:12.146Z,95655.28
2023-05-10T05:31:14.875Z,95646.47
2023-05-10T05:32:16.409Z,95646.91
2023-05-10T05:33:18.639Z,95644.00
2023-05-10T05:34:21.450Z,95649.16
2023-05-10T05:35:22.970Z,95648.53
2023-05-10T05:36:24.515Z,95649.16
2023-05-10T05:37:26.042Z,95648.94
2023-05-10T05:38:27.752Z,95647.91
2023-05-10T05:39:29.187Z,95653.22
2023-05-10T05:40:30.790Z,95648.25
2023-05-10T05:41:32.318Z,95658.38
2023-05-10T05:42:34.279Z,95655.22
2023-05-10T05:43:38.066Z,95653.38
2023-05-10T05:44:40.471Z,95657.25
2023-05-10T05:45:42.113Z,95651.88
2023-05-10T05:46:43.624Z,95654.91
2023-05-10T05:47:45.178Z,95652.53
2023-05-10T05:48:46.797Z,95653.69
2023-05-10T05:49:48.280Z,95658.25
2023-05-10T05:50:49.797Z,95659.41
2023-05-10T05:51:51.711Z,95652.38
2023-05-10T05:52:53.483Z,95654.22
2023-05-10T05:53:55.126Z,95656.75
2023-05-10T05:54:56.692Z,95652.81
2023-05-10T05:55:59.545Z,95662.88
2023-05-10T05:57:01.841Z,95658.69
2023-05-10T05:58:03.754Z,95665.47
2023-05-10T05:59:05.265Z,95660.81
2023-05-10T06:00:07.573Z,95659.91
2023-05-10T06:01:14.451Z,95661.97
2023-05-10T06:02:16.037Z,95661.06
2023-05-10T06:03:17.981Z,95655.00
2023-05-10T06:04:20.575Z,95664.25
2023-05-10T06:05:22.088Z,95662.38
2023-05-10T06:06:23.560Z,95666.53
2023-05-10T06:07:25.109Z,95658.38
2023-05-10T06:08:26.861Z,95658.25
2023-05-10T06:09:28.349Z,95657.69
2023-05-10T06:10:30.220Z,95659.75
2023-05-10T06:11:33.331Z,95665.28
2023-05-10T06:12:35.624Z,95665.94
2023-05-10T06:13:37.150Z,95663.06
2023-05-10T06:14:38.640Z,95671.75
2023-05-10T06:15:40.529Z,95672.56
2023-05-10T06:16:42.131Z,95674.19
2023-05-10T06:17:44.414Z,95671.94
2023-05-10T06:18:46.062Z,95671.34
2023-05-10T06:19:47.926Z,95677.47
2023-05-10T06:20:51.129Z,95682.56
2023-05-10T06:21:53.943Z,95683.38
2023-05-10T06:22:55.673Z,95680.53
2023-05-10T06:23:57.204Z,95681.91
2023-05-10T06:24:59.066Z,95677.38
2023-05-10T06:26:01.042Z,95679.66
2023-05-10T06:27:02.849Z,95682.56
2023-05-10T06:28:04.492Z,95687.09
2023-05-10T06:29:06.136Z,95688.94
2023-05-10T06:30:13.464Z,95695.28
2023-05-10T06:31:15.223Z,95694.06
2023-05-10T06:32:16.783Z,95691.00
2023-05-10T06:33:18.668Z,95693.44
2023-05-10T06:34:20.154Z,95698.84
2023-05-10T06:35:21.979Z,95694.16
2023-05-10T06:36:25.523Z,95694.81
2023-05-10T06:37:26.967Z,95691.97
2023-05-10T06:38:28.774Z,95687.31
2023-05-10T06:39:30.323Z,95689.72
2023-05-10T06:40:31.952Z,95688.75
2023-05-10T06:41:33.493Z,95694.28
2023-05-10T06:42:35.071Z,95691.72
2023-05-10T06:43:40.797Z,95698.69
2023-05-10T06:44:42.726Z,95695.81
2023-05-10T06:45:44.391Z,95690.75
2023-05-10T06:46:46.000Z,95695.59
2023-05-10T06:47:47.640Z,95696.69
2023-05-10T06:48:49.176Z,95698.28
2023-05-10T06:49:50.667Z,95699.25
2023-05-10T06:50:52.228Z,95696.16
2023-05-10T06:51:53.738Z,95696.41
2023-05-10T06:52:56.390Z,95691.75
2023-05-10T06:53:57.911Z,95691.22
2023-05-10T06:54:59.475Z,95693.84
2023-05-10T06:56:01.024Z,95684.84
2023-05-10T06:57:05.794Z,95695.25
2023-05-10T06:58:10.383Z,95690.28
2023-05-10T06:59:12.362Z,95689.81
2023-05-10T07:00:14.739Z,95686.63
2023-05-10T07:01:16.590Z,95692.53
2023-05-10T07:02:18.266Z,95690.66
2023-05-10T07:03:19.825Z,95689.97
2023-05-10T07:04:21.334Z,95685.06
2023-05-10T07:05:23.240Z,95688.63
2023-05-10T07:06:33.037Z,95689.53
2023-05-10T07:07:35.154Z,95687.91
2023-05-10T07:08:36.732Z,95689.53
2023-05-10T07:09:38.219Z,95687.06
2023-05-10T07:10:39.687Z,95688.25
2023-05-10T07:11:41.127Z,95683.94
2023-05-10T07:12:42.734Z,95685.22
2023-05-10T07:13:45.315Z,95680.50
2023-05-10T07:14:47.705Z,95685.78
2023-05-10T07:15:49.332Z,95680.09
2023-05-10T07:16:50.885Z,95681.22
2023-05-10T07:17:53.300Z,95682.38
2023-05-10T07:18:54.914Z,95684.75
2023-05-10T07:19:56.477Z,95685.69
2023-05-10T07:20:58.808Z,95682.19
2023-05-10T07:22:00.364Z,95684.44
2023-05-10T07:23:01.936Z,95681.94
2023-05-10T07:24:03.933Z,95679.75
2023-05-10T07:25:05.931Z,95680.81
2023-05-10T07:26:08.067Z,95680.13
2023-05-10T07:27:10.086Z,95680.34
2023-05-10T07:28:11.588Z,95686.59
2023-05-10T07:29:13.188Z,95689.31
2023-05-10T07:30:15.241Z,95691.72
2023-05-10T07:31:16.953Z,95689.03
2023-05-10T07:32:18.556Z,95693.09
2023-05-10T07:33:20.390Z,95692.28
2023-05-10T07:34:21.858Z,95693.94
2023-05-10T07:35:23.427Z,95688.50
2023-05-10T07:36:25.284Z,95686.84
2023-05-10T07:37:26.771Z,95688.63
2023-05-10T07:38:28.202Z,95685.59
2023-05-10T07:39:29.969Z,95686.97
2023-05-10T07:40:31.457Z,95682.59
2023-05-10T07:41:35.099Z,95686.91
2023-05-10T07:42:37.272Z,95686.75
2023-05-10T07:43:39.039Z,95690.47
2023-05-10T07:44:40.471Z,95696.59
2023-05-10T07:45:42.597Z,95693.19
2023-05-10T07:46:44.051Z,95696.75
2023-05-10T07:47:45.659Z,95700.19
2023-05-10T07:48:47.361Z,95701.00
2023-05-10T07:49:48.888Z,95699.97
2023-05-10T07:50:50.417Z,95693.84
2023-05-10T07:51:52.353Z,95696.16
2023-05-10T07:52:54.150Z,95696.41
2023-05-10T07:53:55.703Z,95700.41
2023-05-10T07:54:57.810Z,95695.56
2023-05-10T07:55:59.756Z,95701.16
2023-05-10T07:57:01.589Z,95698.69
2023-05-10T07:58:03.654Z,95697.72
2023-05-10T07:59:07.288Z,95698.00
2023-05-10T08:00:09.588Z,95704.25
2023-05-10T08:01:17.245Z,95702.03
2023-05-10T08:02:18.774Z,95701.16
2023-05-10T08:03:20.759Z,95696.53
2023-05-10T08:04:22.400Z,95699.22
2023-05-10T08:05:23.931Z,95699.88
2023-05-10T08:06:27.457Z,95696.47
2023-05-10T08:07:28.961Z,95698.44
2023-05-10T08:08:30.491Z,95699.69
2023-05-10T08:09:31.982Z,95690.31
2023-05-10T08:10:33.549Z,95695.28
2023-05-10T08:11:35.366Z,95693.53
2023-05-10T08:12:36.959Z,95700.72
2023-05-10T08:13:38.533Z,95693.25
2023-05-10T08:14:40.012Z,95697.50
2023-05-10T08:15:41.529Z,95694.81
2023-05-10T08:16:43.347Z,95697.75
2023-05-10T08:17:44.964Z,95696.22
2023-05-10T08:18:47.896Z,95696.47
2023-05-10T08:19:49.800Z,95697.13
2023-05-10T08:20:51.326Z,95699.97
2023-05-10T08:21:54.326Z,95695.50
2023-05-10T08:22:56.192Z,95698.28
2023-05-10T08:23:57.795Z,95695.56
2023-05-10T08:24:59.421Z,95698.00
2023-05-10T08:26:01.212Z,95699.31
2023-05-10T08:27:02.761Z,95700.69
2023-05-10T08:28:04.382Z,95705.75
2023-05-10T08:29:05.903Z,95710.84
2023-05-10T08:30:08.070Z,95700.56
2023-05-10T08:31:09.640Z,95703.38
2023-05-10T08:32:11.382Z,95708.75
2023-05-10T08:33:12.925Z,95709.16
2023-05-10T08:34:14.375Z,95714.13
2023-05-10T08:35:16.936Z,95708.88
2023-05-10T08:36:22.424Z,95712.28
2023-05-10T08:37:24.721Z,95718.75
2023-05-10T08:38:26.832Z,95715.00
2023-05-10T08:39:30.695Z,95710.56
2023-05-10T08:40:32.486Z,95719.56
2023-05-10T08:41:34.624Z,95711.38
2023-05-10T08:42:38.721Z,95712.91
2023-05-10T08:43:42.486Z,95715.22
2023-05-10T08:44:44.087Z,95719.53
2023-05-10T08:45:48.464Z,95715.31
2023-05-10T08:46:53.210Z,95718.47
2023-05-10T08:47:55.185Z,95724.69
2023-05-10T08:48:58.939Z,95719.81
2023-05-10T08:50:01.438Z,95724.84
2023-05-10T08:51:04.699Z,95717.06
2023-05-10T08:52:08.377Z,95727.13
2023-05-10T08:53:14.509Z,95725.72
2023-05-10T08:54:16.605Z,95729.22
2023-05-10T08:55:18.521Z,95732.09
2023-05-10T08:56:21.377Z,95725.75
2023-05-10T08:57:23.219Z,95731.25
2023-05-10T08:58:24.879Z,95733.72
2023-05-10T08:59:26.425Z,95731.50
2023-05-10T09:00:29.248Z,95735.44
2023-05-10T09:01:32.750Z,95738.97
2023-05-10T09:02:34.592Z,95730.53
2023-05-10T09:03:36.412Z,95731.50
2023-05-10T09:04:38.106Z,95734.16
2023-05-10T09:05:39.735Z,95735.13
2023-05-10T09:06:41.762Z,95727.97
2023-05-10T09:07:43.318Z,95726.91
2023-05-10T09:08:46.175Z,95726.56
2023-05-10T09:09:48.153Z,95723.91
2023-05-10T09:10:49.821Z,95733.19
2023-05-10T09:11:52.463Z,95729.94
2023-05-10T09:12:58.528Z,95730.78
2023-05-10T09:14:00.858Z,95731.47
2023-05-10T09:15:02.868Z,95732.75
2023-05-10T09:16:19.888Z,95736.16
2023-05-10T09:17:24.802Z,95730.91
2023-05-10T09:18:28.048Z,95733.94
2023-05-10T09:19:29.807Z,95741.78
2023-05-10T09:20:32.078Z,95735.91
2023-05-10T09:21:37.688Z,95734.75
2023-05-10T09:22:39.343Z,95735.81
2023-05-10T09:23:46.151Z,95740.50
2023-05-10T09:25:06.779Z,95738.97
2023-05-10T09:26:09.039Z,95735.47
2023-05-10T09:27:10.711Z,95738.16
2023-05-10T09:28:13.459Z,95738.16
2023-05-10T09:29:17.321Z,95739.53
2023-05-10T09:30:29.300Z,95741.19
2023-05-10T09:31:55.839Z,95738.50
2023-05-10T09:32:59.115Z,95744.22
2023-05-10T09:34:00.823Z,95740.09
2023-05-10T09:35:17.317Z,95738.03
2023-05-10T09:36:19.084Z,95731.84
2023-05-10T09:37:30.629Z,95734.97
2023-05-10T09:38:52.817Z,95739.97
2023-05-10T09:39:55.676Z,95742.31
2023-05-10T09:40:58.718Z,95738.75
2023-05-10T09:42:08.545Z,95743.88
2023-05-10T09:43:11.840Z,95747.97
2023-05-10T09:44:19.498Z,95735.91
2023-05-10T09:45:21.799Z,95738.41
2023-05-10T09:46:23.811Z,95743.19
2023-05-10T09:47:26.242Z,95741.69
2023-05-10T09:48:27.702Z,95744.44
2023-05-10T09:49:29.740Z,95736.63
2023-05-10T09:50:31.411Z,95741.69
2023-05-10T09:51:35.062Z,95742.81
2023-05-10T09:53:03.884Z,95740.69
2023-05-10T09:54:13.890Z,95744.69
2023-05-10T09:55:16.852Z,95745.69
2023-05-10T09:56:36.000Z,95744.13
2023-05-10T09:57:37.504Z,95749.47
2023-05-10T09:58:39.110Z,95740.97
2023-05-10T09:59:44.086Z,95742.47
2023-05-10T10:00:49.053Z,95734.03
2023-05-10T10:01:55.276Z,95738.75
2023-05-10T10:02:59.817Z,95743.41
2023-05-10T10:04:04.741Z,95742.91
2023-05-10T10:05:08.072Z,95747.19
2023-05-10T10:06:18.783Z,95737.38
2023-05-10T10:07:28.615Z,95740.00
2023-05-10T10:08:30.117Z,95740.81
2023-05-10T10:09:32.493Z,95737.34
2023-05-10T10:10:34.509Z,95741.09
2023-05-10T10:11:38.211Z,95740.91
2023-05-10T10:12:42.515Z,95740.34
2023-05-10T10:13:44.391Z,95742.19
2023-05-10T10:14:47.746Z,95738.09
2023-05-10T10:15:52.046Z,95735.41
2023-05-10T10:17:06.676Z,95740.38
2023-05-10T10:18:13.814Z,95731.63
2023-05-10T10:19:16.250Z,95727.81
2023-05-10T10:20:20.086Z,95744.97
2023-05-10T10:21:22.913Z,95733.47
2023-05-10T10:22:24.508Z,95733.19
2023-05-10T10:23:26.584Z,95745.22
2023-05-10T10:24:28.123Z,95738.16
2023-05-10T10:25:30.220Z,95737.19
2023-05-10T10:26:32.083Z,95740.91
2023-05-10T10:27:54.624Z,95736.56
2023-05-10T10:29:21.246Z,95734.38
2023-05-10T10:30:46.940Z,95734.56
2023-05-10T10:31:54.617Z,95737.44
2023-05-10T10:33:20.621Z,95734.09
2023-05-10T10:34:31.337Z,95727.69
2023-05-10T10:35:33.664Z,95735.78
2023-05-10T10:36:46.707Z,95737.22
2023-05-10T10:37:51.241Z,95735.69
2023-05-10T10:38:52.676Z,95734.53
2023-05-10T10:39:56.281Z,95737.63
2023-05-10T10:41:24.632Z,95732.53
2023-05-10T10:42:45.348Z,95732.66
2023-05-10T10:43:46.905Z,95743.34
2023-05-10T10:44:48.607Z,95738.00
2023-05-10T10:46:10.343Z,95747.63
2023-05-10T10:47:25.120Z,95761.75
2023-05-10T10:48:27.074Z,95755.84
2023-05-10T10:49:28.734Z,95751.22
2023-05-10T10:50:30.204Z,95764.47
2023-05-10T10:51:32.208Z,95758.13
2023-05-10T10:52:40.804Z,95765.00
2023-05-10T10:53:43.551Z,95772.66
2023-05-10T10:54:52.234Z,95778.50
2023-05-10T10:56:07.647Z,95776.13
2023-05-10T10:57:15.970Z,95775.94
2023-05-10T10:58:32.563Z,95780.38
2023-05-10T10:59:34.075Z,95776.94
2023-05-10T11:00:40.908Z,95779.66
2023-05-10T11:01:45.552Z,95779.06
2023-05-10T11:03:14.340Z,95776.75
2023-05-10T11:04:20.077Z,95782.53
2023-05-10T11:05:34.051Z,95766.34
2023-05-10T11:06:37.028Z,95779.88
2023-05-10T11:07:52.702Z,95776.78
2023-05-10T11:08:54.760Z,95781.94
2023-05-10T11:09:56.349Z,95773.84
2023-05-10T11:11:00.937Z,95769.31
2023-05-10T11:12:09.466Z,95761.13
2023-05-10T11:13:13.767Z,95769.56
2023-05-10T11:14:15.305Z,95779.66
2023-05-10T11:15:17.119Z,95772.00
2023-05-10T11:16:26.660Z,95774.50
2023-05-10T11:17:30.177Z,95772.28
2023-05-10T11:18:31.841Z,95772.06
2023-05-10T11:19:33.341Z,95771.25
2023-05-10T11:20:41.197Z,95773.53
2023-05-10T11:22:12.842Z,95770.25
2023-05-10T11:23:18.991Z,95770.84
2023-05-10T11:24:23.711Z,95772.78
2023-05-10T11:25:29.046Z,95776.63
2023-05-10T11:26:35.662Z,95775.75
2023-05-10T11:27:38.801Z,95773.44
2023-05-10T11:28:45.033Z,95777.19
2023-05-10T11:29:46.514Z,95780.59
2023-05-10T11:30:48.265Z,95781.16
2023-05-10T11:31:50.754Z,95782.97
2023-05-10T11:32:52.338Z,95783.47
2023-05-10T11:33:56.756Z,95782.75
2023-05-10T11:34:58.264Z,95785.00
2023-05-10T11:35:59.833Z,95787.97
2023-05-10T11:37:01.926Z,95785.75
2023-05-10T11:38:03.467Z,95791.25
2023-05-10T11:39:05.549Z,95796.34
2023-05-10T11:40:07.975Z,95791.31
2023-05-10T11:41:11.247Z,95790.28
2023-05-10T11:42:13.520Z,95790.25
2023-05-10T11:43:15.067Z,95791.69
2023-05-10T11:44:16.624Z,95792.88
2023-05-10T11:45:18.320Z,95800.69
2023-05-10T11:46:21.903Z,95794.16
2023-05-10T11:47:23.499Z,95792.59
2023-05-10T11:48:25.117Z,95793.31
2023-05-10T11:49:26.962Z,95798.34
2023-05-10T11:50:29.021Z,95782.66
2023-05-10T11:51:31.176Z,95791.66
2023-05-10T11:52:37.397Z,95794.09
2023-05-10T11:53:41.872Z,95793.69
2023-05-10T11:54:53.783Z,95792.22
2023-05-10T11:55:55.322Z,95792.31
2023-05-10T11:56:56.808Z,95793.47
2023-05-10T11:58:02.538Z,95800.97
2023-05-10T11:59:04.637Z,95788.56
2023-05-10T12:00:06.895Z,95791.25
2023-05-10T12:01:10.302Z,95792.31
2023-05-10T12:02:12.201Z,95789.47
2023-05-10T12:03:14.502Z,95794.03
2023-05-10T12:04:16.558Z,95791.72
2023-05-10T12:05:18.777Z,95787.59
2023-05-10T12:06:21.343Z,95793.09
2023-05-10T12:07:23.015Z,95797.81
2023-05-10T12:08:26.997Z,95786.56
2023-05-10T12:09:42.543Z,95794.53
2023-05-10T12:10:44.992Z,95795.72
2023-05-10T12:11:46.470Z,95790.44
2023-05-10T12:12:49.108Z,95792.41
2023-05-10T12:13:51.207Z,95793.81
2023-05-10T12:14:52.758Z,95795.72
2023-05-10T12:15:54.352Z,95800.50
2023-05-10T12:16:58.238Z,95793.13
2023-05-10T12:18:00.801Z,95802.59
2023-05-10T12:19:02.423Z,95799.91
2023-05-10T12:20:25.403Z,95793.78
2023-05-10T12:21:29.460Z,95799.94
2023-05-10T12:22:31.091Z,95800.28
2023-05-10T12:23:32.599Z,95796.88
2023-05-10T12:24:38.921Z,95796.69
2023-05-10T12:25:40.722Z,95802.28
2023-05-10T12:26:42.258Z,95798.53
2023-05-10T12:27:54.898Z,95799.66
2023-05-10T12:29:13.313Z,95802.00
2023-05-10T12:30:21.016Z,95802.47
2023-05-10T12:31:22.737Z,95802.00
2023-05-10T12:32:38.795Z,95800.81